LRBS - BUCURESTI / BANEASA-AUREL VLAICU

Compiled: 18:03:48 on 20/10/2018

Latest METAR/SPECI Reports

METAR LRBS 201800Z 30003KT 270V340 9999 FEW044 15/15 Q1020 R07/29//95 NOSIG=

Previous reports

METAR LRBS 201730Z 28003KT 240V350 9999 SCT040 16/15 Q1019 R07/29//95 NOSIG=
METAR LRBS 201700Z 27005KT 230V300 9000 -RA FEW040CB 16/15 Q1019 R07/29//95 NOSIG=
METAR LRBS 201630Z 25006KT 9999 FEW040CB SCT044 16/15 Q1019 RETSRA R07/29//95 NOSIG=
METAR LRBS 201600Z 25008KT 210V010 9999 SCT029 FEW045CB 16/14 Q1019 RETSRA R07/29//95 NOSIG=

Latest TAF report

TAF LRBS 201700Z 2018/2118 VRB04KT 9999 SCT040 PROB40 TEMPO 2018/2022 5000 -SHRA BKN010 SCT035CB BKN040 TEMPO 2103/2108 5000 -SHRA BKN010 SCT030CB BKN035 BECMG 2116/2118 06010KT=

Valid WARNINGS

No valid warnings for LRBS